sensor_id;sensor_type;location;lat;lon;timestamp;temperature;humidity
74513;DHT22;62992;52.052;8.550;2023-09-08T00:02:17;16.80;99.90
74513;DHT22;62992;52.052;8.550;2023-09-08T00:05:01;16.70;99.90
74513;DHT22;62992;52.052;8.550;2023-09-08T00:07:46;16.70;99.90
74513;DHT22;62992;52.052;8.550;2023-09-08T00:10:30;16.70;99.90
74513;DHT22;62992;52.052;8.550;2023-09-08T00:13:14;16.70;99.90
74513;DHT22;62992;52.052;8.550;2023-09-08T00:15:58;16.60;99.90
74513;DHT22;62992;52.052;8.550;2023-09-08T00:18:42;16.60;99.90
74513;DHT22;62992;52.052;8.550;2023-09-08T00:21:27;16.60;99.90
74513;DHT22;62992;52.052;8.550;2023-09-08T00:24:11;16.60;99.90
74513;DHT22;62992;52.052;8.550;2023-09-08T00:26:56;16.50;99.90
74513;DHT22;62992;52.052;8.550;2023-09-08T00:29:40;16.50;99.90
74513;DHT22;62992;52.052;8.550;2023-09-08T00:32:24;16.50;99.90
74513;DHT22;62992;52.052;8.550;2023-09-08T00:35:10;16.50;99.90
74513;DHT22;62992;52.052;8.550;2023-09-08T00:37:55;16.50;99.90
74513;DHT22;62992;52.052;8.550;2023-09-08T00:40:39;16.50;99.90
74513;DHT22;62992;52.052;8.550;2023-09-08T00:43:23;16.40;99.90
74513;DHT22;62992;52.052;8.550;2023-09-08T00:46:07;16.40;99.90
74513;DHT22;62992;52.052;8.550;2023-09-08T00:48:51;16.40;99.90
74513;DHT22;62992;52.052;8.550;2023-09-08T00:51:36;16.30;99.90
74513;DHT22;62992;52.052;8.550;2023-09-08T00:54:21;16.30;99.90
74513;DHT22;62992;52.052;8.550;2023-09-08T00:57:06;16.30;99.90
74513;DHT22;62992;52.052;8.550;2023-09-08T00:59:50;16.30;99.90
74513;DHT22;62992;52.052;8.550;2023-09-08T01:02:34;16.20;99.90
74513;DHT22;62992;52.052;8.550;2023-09-08T01:05:19;16.20;99.90
74513;DHT22;62992;52.052;8.550;2023-09-08T01:08:03;16.10;99.90
74513;DHT22;62992;52.052;8.550;2023-09-08T01:10:47;16.00;99.90
74513;DHT22;62992;52.052;8.550;2023-09-08T01:13:32;16.10;99.90
74513;DHT22;62992;52.052;8.550;2023-09-08T01:16:16;16.00;99.90
74513;DHT22;62992;52.052;8.550;2023-09-08T01:19:00;16.10;99.90
74513;DHT22;62992;52.052;8.550;2023-09-08T01:27:45;15.90;99.90
74513;DHT22;62992;52.052;8.550;2023-09-08T01:30:30;15.90;99.90
74513;DHT22;62992;52.052;8.550;2023-09-08T01:33:17;15.80;99.90
74513;DHT22;62992;52.052;8.550;2023-09-08T01:36:01;15.80;99.90
74513;DHT22;62992;52.052;8.550;2023-09-08T01:38:45;15.80;99.90
74513;DHT22;62992;52.052;8.550;2023-09-08T01:41:30;15.80;99.90
74513;DHT22;62992;52.052;8.550;2023-09-08T01:44:15;15.70;99.90
74513;DHT22;62992;52.052;8.550;2023-09-08T01:46:59;15.70;99.90
74513;DHT22;62992;52.052;8.550;2023-09-08T01:49:43;15.70;99.90
74513;DHT22;62992;52.052;8.550;2023-09-08T01:52:27;15.60;99.90
74513;DHT22;62992;52.052;8.550;2023-09-08T01:55:11;15.60;99.90
74513;DHT22;62992;52.052;8.550;2023-09-08T01:57:56;15.60;99.90
74513;DHT22;62992;52.052;8.550;2023-09-08T02:00:40;15.50;99.90
74513;DHT22;62992;52.052;8.550;2023-09-08T02:03:24;15.60;99.90
74513;DHT22;62992;52.052;8.550;2023-09-08T02:06:08;15.60;99.90
74513;DHT22;62992;52.052;8.550;2023-09-08T02:08:52;15.50;99.90
74513;DHT22;62992;52.052;8.550;2023-09-08T02:11:36;15.50;99.90
74513;DHT22;62992;52.052;8.550;2023-09-08T02:14:21;15.50;99.90
74513;DHT22;62992;52.052;8.550;2023-09-08T02:17:05;15.50;99.90
74513;DHT22;62992;52.052;8.550;2023-09-08T02:19:50;15.50;99.90
74513;DHT22;62992;52.052;8.550;2023-09-08T02:22:34;15.40;99.90
74513;DHT22;62992;52.052;8.550;2023-09-08T02:25:18;15.50;99.90
74513;DHT22;62992;52.052;8.550;2023-09-08T02:28:02;15.40;99.90
74513;DHT22;62992;52.052;8.550;2023-09-08T02:30:47;15.40;99.90
74513;DHT22;62992;52.052;8.550;2023-09-08T02:33:31;15.30;99.90
74513;DHT22;62992;52.052;8.550;2023-09-08T02:36:15;15.30;99.90
74513;DHT22;62992;52.052;8.550;2023-09-08T02:38:59;15.30;99.90
74513;DHT22;62992;52.052;8.550;2023-09-08T02:41:44;15.20;99.90
74513;DHT22;62992;52.052;8.550;2023-09-08T02:44:28;15.30;99.90
74513;DHT22;62992;52.052;8.550;2023-09-08T02:47:13;15.20;99.90
74513;DHT22;62992;52.052;8.550;2023-09-08T02:49:57;15.20;99.90
74513;DHT22;62992;52.052;8.550;2023-09-08T02:52:42;15.20;99.90
74513;DHT22;62992;52.052;8.550;2023-09-08T02:55:26;15.10;99.90
74513;DHT22;62992;52.052;8.550;2023-09-08T02:58:10;15.10;99.90
74513;DHT22;62992;52.052;8.550;2023-09-08T03:00:54;15.10;99.90
74513;DHT22;62992;52.052;8.550;2023-09-08T03:03:39;15.10;99.90
74513;DHT22;62992;52.052;8.550;2023-09-08T03:06:23;15.00;99.90
74513;DHT22;62992;52.052;8.550;2023-09-08T03:09:08;15.00;99.90
74513;DHT22;62992;52.052;8.550;2023-09-08T03:11:52;15.00;99.90
74513;DHT22;62992;52.052;8.550;2023-09-08T03:14:36;14.90;99.90
74513;DHT22;62992;52.052;8.550;2023-09-08T03:17:20;15.00;99.90
74513;DHT22;62992;52.052;8.550;2023-09-08T03:20:05;15.00;99.90
74513;DHT22;62992;52.052;8.550;2023-09-08T03:22:51;14.90;99.90
74513;DHT22;62992;52.052;8.550;2023-09-08T03:25:36;14.90;99.90
74513;DHT22;62992;52.052;8.550;2023-09-08T03:28:20;14.90;99.90
74513;DHT22;62992;52.052;8.550;2023-09-08T03:31:04;15.00;99.90
74513;DHT22;62992;52.052;8.550;2023-09-08T03:33:48;15.00;99.90
74513;DHT22;62992;52.052;8.550;2023-09-08T03:36:33;15.00;99.90
74513;DHT22;62992;52.052;8.550;2023-09-08T03:39:19;15.00;99.90
74513;DHT22;62992;52.052;8.550;2023-09-08T03:42:04;15.00;99.90
74513;DHT22;62992;52.052;8.550;2023-09-08T03:44:48;14.90;99.90
74513;DHT22;62992;52.052;8.550;2023-09-08T03:47:32;14.90;99.90
74513;DHT22;62992;52.052;8.550;2023-09-08T03:50:16;14.90;99.90
74513;DHT22;62992;52.052;8.550;2023-09-08T03:53:00;14.90;99.90
74513;DHT22;62992;52.052;8.550;2023-09-08T03:55:45;15.00;99.90
74513;DHT22;62992;52.052;8.550;2023-09-08T03:58:29;15.00;99.90
74513;DHT22;62992;52.052;8.550;2023-09-08T04:01:13;15.10;99.90
74513;DHT22;62992;52.052;8.550;2023-09-08T04:03:57;15.10;99.90
74513;DHT22;62992;52.052;8.550;2023-09-08T04:06:41;15.00;99.90
74513;DHT22;62992;52.052;8.550;2023-09-08T04:09:25;15.00;99.90
74513;DHT22;62992;52.052;8.550;2023-09-08T04:12:11;15.00;99.90
74513;DHT22;62992;52.052;8.550;2023-09-08T04:14:56;14.90;99.90
74513;DHT22;62992;52.052;8.550;2023-09-08T04:17:40;14.90;99.90
74513;DHT22;62992;52.052;8.550;2023-09-08T04:20:24;14.90;99.90
74513;DHT22;62992;52.052;8.550;2023-09-08T04:23:08;14.80;99.90
74513;DHT22;62992;52.052;8.550;2023-09-08T04:25:52;14.80;99.90
74513;DHT22;62992;52.052;8.550;2023-09-08T04:28:37;14.80;99.90
74513;DHT22;62992;52.052;8.550;2023-09-08T04:31:21;14.70;99.90
74513;DHT22;62992;52.052;8.550;2023-09-08T04:34:05;14.60;99.90
74513;DHT22;62992;52.052;8.550;2023-09-08T04:36:49;14.60;99.90
74513;DHT22;62992;52.052;8.550;2023-09-08T04:39:34;14.50;99.90
74513;DHT22;62992;52.052;8.550;2023-09-08T04:42:18;14.60;99.90
74513;DHT22;62992;52.052;8.550;2023-09-08T04:45:03;14.60;99.90
74513;DHT22;62992;52.052;8.550;2023-09-08T04:47:47;14.50;99.90
74513;DHT22;62992;52.052;8.550;2023-09-08T04:50:31;14.40;99.90
74513;DHT22;62992;52.052;8.550;2023-09-08T04:53:15;14.40;99.90
74513;DHT22;62992;52.052;8.550;2023-09-08T04:56:00;14.40;99.90
74513;DHT22;62992;52.052;8.550;2023-09-08T04:58:44;14.40;99.90
74513;DHT22;62992;52.052;8.550;2023-09-08T05:01:28;14.50;99.90
74513;DHT22;62992;52.052;8.550;2023-09-08T05:04:14;14.50;99.90
74513;DHT22;62992;52.052;8.550;2023-09-08T05:06:58;14.50;99.90
74513;DHT22;62992;52.052;8.550;2023-09-08T05:09:42;14.40;99.90
74513;DHT22;62992;52.052;8.550;2023-09-08T05:12:26;14.50;99.90
74513;DHT22;62992;52.052;8.550;2023-09-08T05:15:11;14.50;99.90
74513;DHT22;62992;52.052;8.550;2023-09-08T05:17:59;14.50;99.90
74513;DHT22;62992;52.052;8.550;2023-09-08T05:20:44;14.50;99.90
74513;DHT22;62992;52.052;8.550;2023-09-08T05:23:31;14.50;99.90
74513;DHT22;62992;52.052;8.550;2023-09-08T05:26:15;14.60;99.90
74513;DHT22;62992;52.052;8.550;2023-09-08T05:28:59;14.50;99.90
74513;DHT22;62992;52.052;8.550;2023-09-08T05:31:44;14.50;99.90
74513;DHT22;62992;52.052;8.550;2023-09-08T05:34:28;14.50;99.90
74513;DHT22;62992;52.052;8.550;2023-09-08T05:37:12;14.60;99.90
74513;DHT22;62992;52.052;8.550;2023-09-08T05:39:56;14.60;99.90
74513;DHT22;62992;52.052;8.550;2023-09-08T05:42:40;14.70;99.90
74513;DHT22;62992;52.052;8.550;2023-09-08T05:45:25;14.70;99.90
74513;DHT22;62992;52.052;8.550;2023-09-08T05:48:09;14.70;99.90
74513;DHT22;62992;52.052;8.550;2023-09-08T05:50:54;14.80;99.90
74513;DHT22;62992;52.052;8.550;2023-09-08T05:53:38;14.80;99.90
74513;DHT22;62992;52.052;8.550;2023-09-08T05:56:30;14.90;99.90
74513;DHT22;62992;52.052;8.550;2023-09-08T05:59:14;14.90;99.90
74513;DHT22;62992;52.052;8.550;2023-09-08T06:01:58;15.00;99.90
74513;DHT22;62992;52.052;8.550;2023-09-08T06:04:43;15.00;99.90
74513;DHT22;62992;52.052;8.550;2023-09-08T06:07:27;15.10;99.90
74513;DHT22;62992;52.052;8.550;2023-09-08T06:10:11;15.20;99.90
74513;DHT22;62992;52.052;8.550;2023-09-08T06:12:56;15.30;99.90
74513;DHT22;62992;52.052;8.550;2023-09-08T06:15:40;15.40;99.90
74513;DHT22;62992;52.052;8.550;2023-09-08T06:18:27;15.50;99.90
74513;DHT22;62992;52.052;8.550;2023-09-08T06:21:11;15.60;99.90
74513;DHT22;62992;52.052;8.550;2023-09-08T06:23:56;15.60;99.90
74513;DHT22;62992;52.052;8.550;2023-09-08T06:26:40;15.90;99.90
74513;DHT22;62992;52.052;8.550;2023-09-08T06:29:25;16.10;99.90
74513;DHT22;62992;52.052;8.550;2023-09-08T06:32:10;16.40;99.90
74513;DHT22;62992;52.052;8.550;2023-09-08T06:34:54;16.40;99.90
74513;DHT22;62992;52.052;8.550;2023-09-08T06:37:39;16.60;99.90
74513;DHT22;62992;52.052;8.550;2023-09-08T06:40:23;16.90;99.90
74513;DHT22;62992;52.052;8.550;2023-09-08T06:43:07;16.80;99.90
74513;DHT22;62992;52.052;8.550;2023-09-08T06:45:52;17.10;99.90
74513;DHT22;62992;52.052;8.550;2023-09-08T06:48:36;17.20;99.90
74513;DHT22;62992;52.052;8.550;2023-09-08T06:51:20;17.40;99.90
74513;DHT22;62992;52.052;8.550;2023-09-08T06:54:05;17.60;99.90
74513;DHT22;62992;52.052;8.550;2023-09-08T06:56:49;17.80;99.90
74513;DHT22;62992;52.052;8.550;2023-09-08T06:59:33;17.90;99.90
74513;DHT22;62992;52.052;8.550;2023-09-08T07:02:17;18.10;99.90
74513;DHT22;62992;52.052;8.550;2023-09-08T07:05:02;18.30;99.90
74513;DHT22;62992;52.052;8.550;2023-09-08T07:07:50;18.40;99.90
74513;DHT22;62992;52.052;8.550;2023-09-08T07:10:34;19.40;99.90
74513;DHT22;62992;52.052;8.550;2023-09-08T07:13:19;23.10;99.90
74513;DHT22;62992;52.052;8.550;2023-09-08T07:16:03;26.10;99.90
74513;DHT22;62992;52.052;8.550;2023-09-08T07:18:47;26.90;99.90
74513;DHT22;62992;52.052;8.550;2023-09-08T07:21:31;29.20;99.90
74513;DHT22;62992;52.052;8.550;2023-09-08T07:24:15;29.30;99.90
74513;DHT22;62992;52.052;8.550;2023-09-08T07:27:00;30.60;98.40
74513;DHT22;62992;52.052;8.550;2023-09-08T07:29:45;29.10;98.40
74513;DHT22;62992;52.052;8.550;2023-09-08T07:32:31;28.00;99.90
74513;DHT22;62992;52.052;8.550;2023-09-08T07:35:16;26.70;99.90
74513;DHT22;62992;52.052;8.550;2023-09-08T07:38:00;27.70;99.90
74513;DHT22;62992;52.052;8.550;2023-09-08T07:40:45;29.00;99.90
74513;DHT22;62992;52.052;8.550;2023-09-08T07:43:29;29.50;99.50
74513;DHT22;62992;52.052;8.550;2023-09-08T07:46:13;29.70;98.30
74513;DHT22;62992;52.052;8.550;2023-09-08T07:48:58;29.00;99.90
74513;DHT22;62992;52.052;8.550;2023-09-08T07:51:42;28.90;99.80
74513;DHT22;62992;52.052;8.550;2023-09-08T07:54:26;28.00;99.90
74513;DHT22;62992;52.052;8.550;2023-09-08T07:57:10;27.30;99.90
74513;DHT22;62992;52.052;8.550;2023-09-08T07:59:54;26.30;99.90
74513;DHT22;62992;52.052;8.550;2023-09-08T08:02:43;25.90;99.90
74513;DHT22;62992;52.052;8.550;2023-09-08T08:05:28;25.70;99.90
74513;DHT22;62992;52.052;8.550;2023-09-08T08:08:12;26.40;99.90
74513;DHT22;62992;52.052;8.550;2023-09-08T08:10:56;26.70;99.90
74513;DHT22;62992;52.052;8.550;2023-09-08T08:13:40;26.80;99.90
74513;DHT22;62992;52.052;8.550;2023-09-08T08:16:25;27.40;99.90
74513;DHT22;62992;52.052;8.550;2023-09-08T08:19:09;26.40;99.90
74513;DHT22;62992;52.052;8.550;2023-09-08T08:21:53;25.60;99.90
74513;DHT22;62992;52.052;8.550;2023-09-08T08:24:37;26.10;99.90
74513;DHT22;62992;52.052;8.550;2023-09-08T08:27:22;26.90;99.90
74513;DHT22;62992;52.052;8.550;2023-09-08T08:30:06;26.40;99.90
74513;DHT22;62992;52.052;8.550;2023-09-08T08:32:50;27.20;99.90
74513;DHT22;62992;52.052;8.550;2023-09-08T08:35:35;27.80;99.90
74513;DHT22;62992;52.052;8.550;2023-09-08T08:38:19;27.70;99.90
74513;DHT22;62992;52.052;8.550;2023-09-08T08:41:03;27.40;99.90
74513;DHT22;62992;52.052;8.550;2023-09-08T08:43:48;26.90;99.90
74513;DHT22;62992;52.052;8.550;2023-09-08T08:46:33;26.90;99.90
74513;DHT22;62992;52.052;8.550;2023-09-08T08:49:17;26.60;99.90
74513;DHT22;62992;52.052;8.550;2023-09-08T08:52:02;26.60;99.90
74513;DHT22;62992;52.052;8.550;2023-09-08T08:54:51;26.90;99.90
74513;DHT22;62992;52.052;8.550;2023-09-08T08:57:38;27.40;99.90
74513;DHT22;62992;52.052;8.550;2023-09-08T09:00:22;27.90;99.90
74513;DHT22;62992;52.052;8.550;2023-09-08T09:03:07;27.90;99.90
74513;DHT22;62992;52.052;8.550;2023-09-08T09:05:51;27.20;99.90
74513;DHT22;62992;52.052;8.550;2023-09-08T09:08:35;27.00;99.90
74513;DHT22;62992;52.052;8.550;2023-09-08T09:11:20;26.20;99.90
74513;DHT22;62992;52.052;8.550;2023-09-08T09:14:04;26.10;99.90
74513;DHT22;62992;52.052;8.550;2023-09-08T09:16:49;26.20;99.90
74513;DHT22;62992;52.052;8.550;2023-09-08T09:19:33;26.30;99.90
74513;DHT22;62992;52.052;8.550;2023-09-08T09:22:20;26.50;99.90
74513;DHT22;62992;52.052;8.550;2023-09-08T09:25:04;26.70;99.90
74513;DHT22;62992;52.052;8.550;2023-09-08T09:27:55;27.10;99.90
74513;DHT22;62992;52.052;8.550;2023-09-08T09:30:50;27.30;99.90
74513;DHT22;62992;52.052;8.550;2023-09-08T09:33:40;27.40;99.90
74513;DHT22;62992;52.052;8.550;2023-09-08T09:36:24;27.30;99.90
74513;DHT22;62992;52.052;8.550;2023-09-08T09:39:08;27.50;99.90
74513;DHT22;62992;52.052;8.550;2023-09-08T09:41:53;27.40;99.90
74513;DHT22;62992;52.052;8.550;2023-09-08T09:44:38;27.70;99.90
74513;DHT22;62992;52.052;8.550;2023-09-08T09:47:22;28.10;99.90
74513;DHT22;62992;52.052;8.550;2023-09-08T09:50:06;28.30;99.90
74513;DHT22;62992;52.052;8.550;2023-09-08T09:52:51;28.40;99.90
74513;DHT22;62992;52.052;8.550;2023-09-08T09:55:36;28.50;99.90
74513;DHT22;62992;52.052;8.550;2023-09-08T09:58:20;28.60;99.90
74513;DHT22;62992;52.052;8.550;2023-09-08T10:01:04;29.10;99.90
74513;DHT22;62992;52.052;8.550;2023-09-08T10:03:49;29.40;99.90
74513;DHT22;62992;52.052;8.550;2023-09-08T10:06:34;29.80;99.90
74513;DHT22;62992;52.052;8.550;2023-09-08T10:09:18;29.90;99.90
74513;DHT22;62992;52.052;8.550;2023-09-08T10:12:04;29.90;99.90
74513;DHT22;62992;52.052;8.550;2023-09-08T10:14:48;29.70;99.90
74513;DHT22;62992;52.052;8.550;2023-09-08T10:17:35;30.40;99.90
74513;DHT22;62992;52.052;8.550;2023-09-08T10:20:19;30.30;99.90
74513;DHT22;62992;52.052;8.550;2023-09-08T10:23:10;30.10;99.90
74513;DHT22;62992;52.052;8.550;2023-09-08T10:25:57;30.60;99.90
74513;DHT22;62992;52.052;8.550;2023-09-08T10:28:43;30.60;99.90
74513;DHT22;62992;52.052;8.550;2023-09-08T10:31:27;30.70;99.90
74513;DHT22;62992;52.052;8.550;2023-09-08T10:34:11;30.60;99.90
74513;DHT22;62992;52.052;8.550;2023-09-08T10:36:56;30.70;99.90
74513;DHT22;62992;52.052;8.550;2023-09-08T10:39:40;30.20;99.90
74513;DHT22;62992;52.052;8.550;2023-09-08T10:42:25;31.00;99.90
74513;DHT22;62992;52.052;8.550;2023-09-08T10:45:18;30.80;99.20
74513;DHT22;62992;52.052;8.550;2023-09-08T10:48:02;29.50;99.90
74513;DHT22;62992;52.052;8.550;2023-09-08T10:50:47;29.80;99.90
74513;DHT22;62992;52.052;8.550;2023-09-08T10:53:31;30.10;99.90
74513;DHT22;62992;52.052;8.550;2023-09-08T10:56:16;30.50;99.90
74513;DHT22;62992;52.052;8.550;2023-09-08T10:59:00;30.70;99.90
74513;DHT22;62992;52.052;8.550;2023-09-08T11:01:47;30.50;99.90
74513;DHT22;62992;52.052;8.550;2023-09-08T11:04:31;30.40;99.90
74513;DHT22;62992;52.052;8.550;2023-09-08T11:07:16;30.60;99.90
74513;DHT22;62992;52.052;8.550;2023-09-08T11:10:00;30.90;99.70
74513;DHT22;62992;52.052;8.550;2023-09-08T11:12:45;30.90;99.90
74513;DHT22;62992;52.052;8.550;2023-09-08T11:15:29;30.80;99.50
74513;DHT22;62992;52.052;8.550;2023-09-08T11:18:14;31.20;99.90
74513;DHT22;62992;52.052;8.550;2023-09-08T11:20:58;31.00;99.90
74513;DHT22;62992;52.052;8.550;2023-09-08T11:23:42;30.80;99.00
74513;DHT22;62992;52.052;8.550;2023-09-08T11:26:27;30.30;99.50
74513;DHT22;62992;52.052;8.550;2023-09-08T11:29:11;30.40;98.30
74513;DHT22;62992;52.052;8.550;2023-09-08T11:31:55;30.10;98.30
74513;DHT22;62992;52.052;8.550;2023-09-08T11:34:40;30.80;99.90
74513;DHT22;62992;52.052;8.550;2023-09-08T11:37:27;31.00;99.70
74513;DHT22;62992;52.052;8.550;2023-09-08T11:40:11;30.80;98.80
74513;DHT22;62992;52.052;8.550;2023-09-08T11:42:56;31.20;99.30
74513;DHT22;62992;52.052;8.550;2023-09-08T11:45:40;30.60;97.40
74513;DHT22;62992;52.052;8.550;2023-09-08T11:48:26;30.70;97.80
74513;DHT22;62992;52.052;8.550;2023-09-08T11:51:11;30.50;98.40
74513;DHT22;62992;52.052;8.550;2023-09-08T11:53:55;31.00;98.90
74513;DHT22;62992;52.052;8.550;2023-09-08T11:56:39;30.90;98.10
74513;DHT22;62992;52.052;8.550;2023-09-08T11:59:24;30.40;99.10
74513;DHT22;62992;52.052;8.550;2023-09-08T12:02:08;30.20;98.90
74513;DHT22;62992;52.052;8.550;2023-09-08T12:04:53;30.20;99.40
74513;DHT22;62992;52.052;8.550;2023-09-08T12:07:38;30.00;99.00
74513;DHT22;62992;52.052;8.550;2023-09-08T12:10:23;30.10;99.30
74513;DHT22;62992;52.052;8.550;2023-09-08T12:13:07;30.00;99.50
74513;DHT22;62992;52.052;8.550;2023-09-08T12:15:52;29.80;99.20
74513;DHT22;62992;52.052;8.550;2023-09-08T12:18:39;29.50;99.60
74513;DHT22;62992;52.052;8.550;2023-09-08T12:21:24;29.50;99.90
74513;DHT22;62992;52.052;8.550;2023-09-08T12:24:08;29.50;99.90
74513;DHT22;62992;52.052;8.550;2023-09-08T12:26:56;29.40;99.90
74513;DHT22;62992;52.052;8.550;2023-09-08T12:29:40;29.40;99.90
74513;DHT22;62992;52.052;8.550;2023-09-08T12:32:25;29.10;99.90
74513;DHT22;62992;52.052;8.550;2023-09-08T12:35:09;29.30;98.90
74513;DHT22;62992;52.052;8.550;2023-09-08T12:37:57;29.10;98.50
74513;DHT22;62992;52.052;8.550;2023-09-08T12:40:43;29.00;98.50
74513;DHT22;62992;52.052;8.550;2023-09-08T12:43:27;29.20;99.00
74513;DHT22;62992;52.052;8.550;2023-09-08T12:46:11;29.20;99.90
74513;DHT22;62992;52.052;8.550;2023-09-08T12:48:55;28.90;99.30
74513;DHT22;62992;52.052;8.550;2023-09-08T12:51:39;28.90;97.50
74513;DHT22;62992;52.052;8.550;2023-09-08T12:54:24;29.00;97.70
74513;DHT22;62992;52.052;8.550;2023-09-08T12:57:08;28.80;97.10
74513;DHT22;62992;52.052;8.550;2023-09-08T12:59:52;28.80;98.40
74513;DHT22;62992;52.052;8.550;2023-09-08T13:02:37;28.70;99.90
74513;DHT22;62992;52.052;8.550;2023-09-08T13:05:21;28.70;99.90
74513;DHT22;62992;52.052;8.550;2023-09-08T13:08:05;28.80;99.80
74513;DHT22;62992;52.052;8.550;2023-09-08T13:10:49;28.80;97.70
74513;DHT22;62992;52.052;8.550;2023-09-08T13:13:33;28.90;95.30
74513;DHT22;62992;52.052;8.550;2023-09-08T13:16:17;28.90;95.30
74513;DHT22;62992;52.052;8.550;2023-09-08T13:19:02;28.90;95.80
74513;DHT22;62992;52.052;8.550;2023-09-08T13:21:46;29.00;96.10
74513;DHT22;62992;52.052;8.550;2023-09-08T13:24:31;29.10;96.00
74513;DHT22;62992;52.052;8.550;2023-09-08T13:27:15;28.80;95.20
74513;DHT22;62992;52.052;8.550;2023-09-08T13:30:11;28.80;96.90
74513;DHT22;62992;52.052;8.550;2023-09-08T13:32:55;28.90;96.20
74513;DHT22;62992;52.052;8.550;2023-09-08T13:35:40;28.90;95.70
74513;DHT22;62992;52.052;8.550;2023-09-08T13:38:24;28.90;97.50
74513;DHT22;62992;52.052;8.550;2023-09-08T13:41:08;28.80;98.70
74513;DHT22;62992;52.052;8.550;2023-09-08T13:43:52;28.80;98.20
74513;DHT22;62992;52.052;8.550;2023-09-08T13:46:37;28.90;96.60
74513;DHT22;62992;52.052;8.550;2023-09-08T13:49:22;28.80;97.90
74513;DHT22;62992;52.052;8.550;2023-09-08T13:52:09;28.80;95.80
74513;DHT22;62992;52.052;8.550;2023-09-08T13:54:54;28.80;96.20
74513;DHT22;62992;52.052;8.550;2023-09-08T13:57:38;28.80;95.20
74513;DHT22;62992;52.052;8.550;2023-09-08T14:00:22;28.80;96.30
74513;DHT22;62992;52.052;8.550;2023-09-08T14:03:06;28.80;96.50
74513;DHT22;62992;52.052;8.550;2023-09-08T14:05:50;28.80;95.70
74513;DHT22;62992;52.052;8.550;2023-09-08T14:08:34;28.70;96.50
74513;DHT22;62992;52.052;8.550;2023-09-08T14:11:19;28.80;96.90
74513;DHT22;62992;52.052;8.550;2023-09-08T14:14:05;28.80;97.20
74513;DHT22;62992;52.052;8.550;2023-09-08T14:16:49;28.80;96.20
74513;DHT22;62992;52.052;8.550;2023-09-08T14:19:33;28.70;97.90
74513;DHT22;62992;52.052;8.550;2023-09-08T14:22:17;28.80;96.70
74513;DHT22;62992;52.052;8.550;2023-09-08T14:25:01;28.70;96.40
74513;DHT22;62992;52.052;8.550;2023-09-08T14:27:45;28.60;95.90
74513;DHT22;62992;52.052;8.550;2023-09-08T14:30:30;28.70;95.80
74513;DHT22;62992;52.052;8.550;2023-09-08T14:33:14;28.70;96.30
74513;DHT22;62992;52.052;8.550;2023-09-08T14:35:58;28.70;96.80
74513;DHT22;62992;52.052;8.550;2023-09-08T14:38:42;28.50;96.60
74513;DHT22;62992;52.052;8.550;2023-09-08T14:41:26;28.40;97.30
74513;DHT22;62992;52.052;8.550;2023-09-08T14:44:10;28.50;97.50
74513;DHT22;62992;52.052;8.550;2023-09-08T14:46:54;28.60;97.20
74513;DHT22;62992;52.052;8.550;2023-09-08T14:49:39;28.50;97.10
74513;DHT22;62992;52.052;8.550;2023-09-08T14:52:23;28.40;97.70
74513;DHT22;62992;52.052;8.550;2023-09-08T14:55:07;28.40;98.20
74513;DHT22;62992;52.052;8.550;2023-09-08T14:57:53;28.40;97.50
74513;DHT22;62992;52.052;8.550;2023-09-08T15:00:37;28.30;98.00
74513;DHT22;62992;52.052;8.550;2023-09-08T15:03:21;28.40;97.90
74513;DHT22;62992;52.052;8.550;2023-09-08T15:06:06;28.40;98.30
74513;DHT22;62992;52.052;8.550;2023-09-08T15:08:50;28.50;97.80
74513;DHT22;62992;52.052;8.550;2023-09-08T15:11:34;28.40;98.50
74513;DHT22;62992;52.052;8.550;2023-09-08T15:14:18;28.50;97.60
74513;DHT22;62992;52.052;8.550;2023-09-08T15:17:02;28.50;98.20
74513;DHT22;62992;52.052;8.550;2023-09-08T15:19:47;28.30;99.10
74513;DHT22;62992;52.052;8.550;2023-09-08T15:22:31;28.50;98.40
74513;DHT22;62992;52.052;8.550;2023-09-08T15:25:15;28.50;97.30
74513;DHT22;62992;52.052;8.550;2023-09-08T15:27:59;28.50;97.00
74513;DHT22;62992;52.052;8.550;2023-09-08T15:30:50;28.40;97.80
74513;DHT22;62992;52.052;8.550;2023-09-08T15:33:36;28.50;97.00
74513;DHT22;62992;52.052;8.550;2023-09-08T15:36:21;28.50;97.40
74513;DHT22;62992;52.052;8.550;2023-09-08T15:39:05;28.60;96.50
74513;DHT22;62992;52.052;8.550;2023-09-08T15:41:49;28.40;96.60
74513;DHT22;62992;52.052;8.550;2023-09-08T15:44:34;28.40;96.40
74513;DHT22;62992;52.052;8.550;2023-09-08T15:47:18;28.30;97.30
74513;DHT22;62992;52.052;8.550;2023-09-08T15:50:03;28.30;97.30
74513;DHT22;62992;52.052;8.550;2023-09-08T15:52:51;28.30;99.70
74513;DHT22;62992;52.052;8.550;2023-09-08T15:55:35;28.10;99.90
74513;DHT22;62992;52.052;8.550;2023-09-08T15:58:20;28.00;99.90
74513;DHT22;62992;52.052;8.550;2023-09-08T16:01:04;27.90;99.90
74513;DHT22;62992;52.052;8.550;2023-09-08T16:03:51;27.80;99.90
74513;DHT22;62992;52.052;8.550;2023-09-08T16:06:36;27.70;99.90
74513;DHT22;62992;52.052;8.550;2023-09-08T16:09:20;27.80;99.90
74513;DHT22;62992;52.052;8.550;2023-09-08T16:12:04;27.80;99.90
74513;DHT22;62992;52.052;8.550;2023-09-08T16:14:48;27.70;99.90
74513;DHT22;62992;52.052;8.550;2023-09-08T16:17:33;27.80;99.90
74513;DHT22;62992;52.052;8.550;2023-09-08T16:20:17;27.70;99.90
74513;DHT22;62992;52.052;8.550;2023-09-08T16:23:03;27.50;99.90
74513;DHT22;62992;52.052;8.550;2023-09-08T16:25:47;27.50;99.90
74513;DHT22;62992;52.052;8.550;2023-09-08T16:28:31;27.30;99.90
74513;DHT22;62992;52.052;8.550;2023-09-08T16:31:15;27.40;99.90
74513;DHT22;62992;52.052;8.550;2023-09-08T16:34:00;27.30;99.90
74513;DHT22;62992;52.052;8.550;2023-09-08T16:36:44;27.40;99.90
74513;DHT22;62992;52.052;8.550;2023-09-08T16:39:29;27.20;99.90
74513;DHT22;62992;52.052;8.550;2023-09-08T16:42:13;27.20;99.90
74513;DHT22;62992;52.052;8.550;2023-09-08T16:44:57;27.20;99.90
74513;DHT22;62992;52.052;8.550;2023-09-08T16:47:41;27.10;99.90
74513;DHT22;62992;52.052;8.550;2023-09-08T16:50:25;27.10;99.90
74513;DHT22;62992;52.052;8.550;2023-09-08T16:53:10;27.10;99.90
74513;DHT22;62992;52.052;8.550;2023-09-08T16:55:54;27.10;99.90
74513;DHT22;62992;52.052;8.550;2023-09-08T16:58:38;27.10;99.90
74513;DHT22;62992;52.052;8.550;2023-09-08T17:01:22;26.80;99.90
74513;DHT22;62992;52.052;8.550;2023-09-08T17:04:06;26.70;99.90
74513;DHT22;62992;52.052;8.550;2023-09-08T17:06:53;26.50;99.90
74513;DHT22;62992;52.052;8.550;2023-09-08T17:09:37;26.50;99.90
74513;DHT22;62992;52.052;8.550;2023-09-08T17:12:21;26.30;99.90
74513;DHT22;62992;52.052;8.550;2023-09-08T17:15:06;26.30;99.90
74513;DHT22;62992;52.052;8.550;2023-09-08T17:17:50;26.20;99.90
74513;DHT22;62992;52.052;8.550;2023-09-08T17:20:34;26.10;99.90
74513;DHT22;62992;52.052;8.550;2023-09-08T17:23:19;25.90;99.90
74513;DHT22;62992;52.052;8.550;2023-09-08T17:26:03;25.70;99.90